createdAt,value
2023-04-22T00:01:41.142Z,22.20
2023-04-22T00:04:11.415Z,21.95
2023-04-22T00:06:39.883Z,22.11
2023-04-22T00:09:08.113Z,22.12
2023-04-22T00:11:36.432Z,22.56
2023-04-22T00:14:04.728Z,22.48
2023-04-22T00:16:33.045Z,22.52
2023-04-22T00:19:01.341Z,22.59
2023-04-22T00:21:31.042Z,22.62
2023-04-22T00:23:59.436Z,22.49
2023-04-22T00:29:09.471Z,22.11
2023-04-22T00:31:37.706Z,22.13
2023-04-22T00:34:05.878Z,22.10
2023-04-22T00:36:35.437Z,22.15
2023-04-22T00:39:03.740Z,22.16
2023-04-22T00:41:32.303Z,22.26
2023-04-22T00:44:01.877Z,22.25
2023-04-22T00:46:30.268Z,22.14
2023-04-22T00:48:58.803Z,21.44
2023-04-22T00:53:57.419Z,21.16
2023-04-22T00:56:27.617Z,20.98
2023-04-22T00:58:56.429Z,21.12
2023-04-22T01:01:24.714Z,20.98
2023-04-22T01:03:54.079Z,20.89
2023-04-22T01:06:23.645Z,20.62
2023-04-22T01:08:52.082Z,20.85
2023-04-22T01:11:21.857Z,21.29
2023-04-22T01:13:50.209Z,21.28
2023-04-22T01:16:18.688Z,21.35
2023-04-22T01:18:47.017Z,21.27
2023-04-22T01:21:15.542Z,21.48
2023-04-22T01:23:45.346Z,21.63
2023-04-22T01:26:13.770Z,21.55
2023-04-22T01:28:42.134Z,21.41
2023-04-22T01:31:10.717Z,21.30
2023-04-22T01:33:39.555Z,21.02
2023-04-22T01:36:10.349Z,20.62
2023-04-22T01:38:39.967Z,21.07
2023-04-22T01:41:09.709Z,21.36
2023-04-22T01:43:38.025Z,21.20
2023-04-22T01:46:07.362Z,21.29
2023-04-22T01:48:35.837Z,21.18
2023-04-22T01:51:04.213Z,21.10
2023-04-22T01:56:00.853Z,20.42
2023-04-22T01:58:32.370Z,20.18
2023-04-22T02:01:00.605Z,19.68
2023-04-22T02:03:29.006Z,19.20
2023-04-22T02:05:57.333Z,19.68
2023-04-22T02:08:26.120Z,19.25
2023-04-22T02:10:54.464Z,19.49
2023-04-22T02:13:23.882Z,20.29
2023-04-22T02:15:53.940Z,19.96
2023-04-22T02:18:22.546Z,20.54
2023-04-22T02:20:50.927Z,20.13
2023-04-22T02:23:19.169Z,18.87
2023-04-22T02:25:50.353Z,18.30
2023-04-22T02:28:19.166Z,19.31
2023-04-22T02:30:47.850Z,19.62
2023-04-22T02:33:17.468Z,19.67
2023-04-22T02:35:45.816Z,18.99
2023-04-22T02:38:14.041Z,18.55
2023-04-22T02:40:42.356Z,18.39
2023-04-22T02:43:10.667Z,19.33
2023-04-22T02:45:40.850Z,19.49
2023-04-22T02:48:09.237Z,19.82
2023-04-22T02:50:38.870Z,20.01
2023-04-22T02:53:07.246Z,19.99
2023-04-22T02:55:35.535Z,19.81
2023-04-22T02:58:03.957Z,19.54
2023-04-22T03:00:32.270Z,19.71
2023-04-22T03:03:00.706Z,19.26
2023-04-22T03:05:29.326Z,19.76
2023-04-22T03:07:58.908Z,19.87
2023-04-22T03:10:27.188Z,19.57
2023-04-22T03:12:55.765Z,19.54
2023-04-22T03:15:24.042Z,19.81
2023-04-22T03:17:52.313Z,19.60
2023-04-22T03:20:20.954Z,19.78
2023-04-22T03:22:49.226Z,19.65
2023-04-22T03:25:18.844Z,19.59
2023-04-22T03:27:47.208Z,19.35
2023-04-22T03:30:15.776Z,18.89
2023-04-22T03:32:44.095Z,17.85
2023-04-22T03:35:12.467Z,18.50
2023-04-22T03:37:40.849Z,17.72
2023-04-22T03:40:11.697Z,17.90
2023-04-22T03:42:42.680Z,18.70
2023-04-22T03:45:11.830Z,18.79
2023-04-22T03:47:40.219Z,18.71
2023-04-22T03:50:08.968Z,18.62
2023-04-22T03:52:37.212Z,18.38
2023-04-22T03:55:06.177Z,18.33
2023-04-22T03:57:34.445Z,18.37
2023-04-22T04:00:04.437Z,18.35
2023-04-22T04:02:32.777Z,17.94
2023-04-22T04:05:02.246Z,17.67
2023-04-22T04:07:30.790Z,18.24
2023-04-22T04:09:59.095Z,18.33
2023-04-22T04:12:27.292Z,18.34
2023-04-22T04:14:55.524Z,18.26
2023-04-22T04:17:26.238Z,18.26
2023-04-22T04:19:54.665Z,18.44
2023-04-22T04:22:23.196Z,18.05
2023-04-22T04:24:52.439Z,18.45
2023-04-22T04:27:21.072Z,17.99
2023-04-22T04:29:49.521Z,18.03
2023-04-22T04:32:18.727Z,18.42
2023-04-22T04:34:48.465Z,18.61
2023-04-22T04:37:17.684Z,18.61
2023-04-22T04:39:47.228Z,18.30
2023-04-22T04:42:15.485Z,17.71
2023-04-22T04:44:43.761Z,17.29
2023-04-22T04:47:13.177Z,17.94
2023-04-22T04:49:41.812Z,17.96
2023-04-22T04:52:11.978Z,17.88
2023-04-22T04:54:40.333Z,17.94
2023-04-22T04:57:10.224Z,18.37
2023-04-22T04:59:38.606Z,18.65
2023-04-22T05:02:07.161Z,19.28
2023-04-22T05:04:35.625Z,19.84
2023-04-22T05:07:04.237Z,20.44
2023-04-22T05:09:37.593Z,22.11
2023-04-22T05:12:06.542Z,22.28
2023-04-22T05:14:34.939Z,22.22
2023-04-22T05:17:03.591Z,22.14
2023-04-22T05:19:31.797Z,22.20
2023-04-22T05:22:00.097Z,22.30
2023-04-22T05:24:28.334Z,22.24
2023-04-22T05:26:58.523Z,22.14
2023-04-22T05:29:26.781Z,21.99
2023-04-22T05:31:55.178Z,21.80
2023-04-22T05:34:23.478Z,21.81
2023-04-22T05:36:51.718Z,21.28
2023-04-22T05:39:20.114Z,20.67
2023-04-22T05:41:48.437Z,20.44
2023-04-22T05:44:18.437Z,19.52
2023-04-22T05:46:46.796Z,20.51
2023-04-22T05:49:15.063Z,20.01
2023-04-22T05:51:43.747Z,20.04
2023-04-22T05:54:11.985Z,20.61
2023-04-22T05:56:40.258Z,20.89
2023-04-22T05:59:09.191Z,21.66
2023-04-22T06:01:38.838Z,21.57
2023-04-22T06:04:07.429Z,20.80
2023-04-22T06:06:35.881Z,22.18
2023-04-22T06:09:04.169Z,21.46
2023-04-22T06:11:32.460Z,22.51
2023-04-22T06:14:01.310Z,22.54
2023-04-22T06:16:29.583Z,21.93
2023-04-22T06:18:59.260Z,21.82
2023-04-22T06:21:28.644Z,22.25
2023-04-22T06:23:57.097Z,21.80
2023-04-22T06:26:25.425Z,21.54
2023-04-22T06:28:53.869Z,22.69
2023-04-22T06:31:22.204Z,23.11
2023-04-22T06:33:50.535Z,23.54
2023-04-22T06:36:20.140Z,24.17
2023-04-22T06:38:48.404Z,23.46
2023-04-22T06:41:17.445Z,23.06
2023-04-22T06:43:46.297Z,24.35
2023-04-22T06:46:14.607Z,24.25
2023-04-22T06:48:42.843Z,24.60
2023-04-22T06:51:11.170Z,23.80
2023-04-22T06:53:40.852Z,22.56
2023-04-22T06:56:09.247Z,24.77
2023-04-22T06:58:37.529Z,22.60
2023-04-22T07:01:06.214Z,23.57
2023-04-22T07:03:34.543Z,24.53
2023-04-22T07:06:03.056Z,24.36
2023-04-22T07:08:31.293Z,25.38
2023-04-22T07:11:00.946Z,25.14
2023-04-22T07:13:29.215Z,24.42
2023-04-22T07:15:57.466Z,24.05
2023-04-22T07:18:25.787Z,24.37
2023-04-22T07:20:54.022Z,24.66
2023-04-22T07:23:22.605Z,24.22
2023-04-22T07:25:50.846Z,24.28
2023-04-22T07:28:20.483Z,24.56
2023-04-22T07:30:48.822Z,25.31
2023-04-22T07:33:17.065Z,24.76
2023-04-22T07:35:45.321Z,25.42
2023-04-22T07:38:14.692Z,24.67
2023-04-22T07:40:43.094Z,25.93
2023-04-22T07:43:11.433Z,25.76
2023-04-22T07:45:41.147Z,26.20
2023-04-22T07:48:09.360Z,26.66
2023-04-22T07:50:38.828Z,26.64
2023-04-22T07:53:07.324Z,27.20
2023-04-22T07:55:35.701Z,26.75
2023-04-22T07:58:06.405Z,26.62
2023-04-22T08:00:35.324Z,26.81
2023-04-22T08:03:05.468Z,26.52
2023-04-22T08:05:33.900Z,27.41
2023-04-22T08:08:02.156Z,26.72
2023-04-22T08:10:30.519Z,27.26
2023-04-22T08:12:58.920Z,26.41
2023-04-22T08:15:27.176Z,27.05
2023-04-22T08:17:55.551Z,26.55
2023-04-22T08:20:25.650Z,26.45
2023-04-22T08:22:58.200Z,28.16
2023-04-22T08:25:26.576Z,26.85
2023-04-22T08:27:55.128Z,26.80
2023-04-22T08:30:23.385Z,27.97
2023-04-22T08:32:53.453Z,27.21
2023-04-22T08:35:21.977Z,28.35
2023-04-22T08:37:51.607Z,27.37
2023-04-22T08:40:20.227Z,27.49
2023-04-22T08:42:49.370Z,28.52
2023-04-22T08:45:19.469Z,27.77
2023-04-22T08:47:48.755Z,28.52
2023-04-22T08:50:17.112Z,29.10
2023-04-22T08:52:45.405Z,29.19
2023-04-22T08:55:15.314Z,29.42
2023-04-22T08:57:44.315Z,28.60
2023-04-22T09:00:13.327Z,29.58
2023-04-22T09:02:45.183Z,29.01
2023-04-22T09:05:15.197Z,30.10
2023-04-22T09:07:43.681Z,29.25
2023-04-22T09:10:13.137Z,28.78
2023-04-22T09:12:44.271Z,29.06
2023-04-22T09:15:13.506Z,29.51
2023-04-22T09:17:43.339Z,29.89
2023-04-22T09:20:13.072Z,30.72
2023-04-22T09:22:43.353Z,30.49
2023-04-22T09:25:17.497Z,30.28
2023-04-22T09:27:51.710Z,30.56
2023-04-22T09:30:20.782Z,30.18
2023-04-22T09:32:56.103Z,30.70
2023-04-22T09:35:27.868Z,29.80
2023-04-22T09:37:56.183Z,31.15
2023-04-22T09:40:24.853Z,30.16
2023-04-22T09:42:56.515Z,29.62
2023-04-22T09:45:29.841Z,30.45
2023-04-22T09:47:59.230Z,29.49
2023-04-22T09:50:28.737Z,30.69
2023-04-22T09:52:59.403Z,31.34
2023-04-22T09:55:29.398Z,31.84
2023-04-22T09:57:59.266Z,31.90
2023-04-22T10:00:30.035Z,31.74
2023-04-22T10:02:58.420Z,31.23
2023-04-22T10:05:27.115Z,29.86
2023-04-22T10:07:55.465Z,29.61
2023-04-22T10:10:24.889Z,30.11
2023-04-22T10:12:53.553Z,31.65
2023-04-22T10:15:24.948Z,30.89
2023-04-22T10:17:56.263Z,30.07
2023-04-22T10:20:25.075Z,29.30
2023-04-22T10:22:54.654Z,29.91
2023-04-22T10:25:24.068Z,30.69
2023-04-22T10:27:56.359Z,30.22
2023-04-22T10:30:33.102Z,30.17
2023-04-22T10:33:39.477Z,29.78
2023-04-22T10:36:13.335Z,29.85
2023-04-22T10:39:03.422Z,30.77
2023-04-22T10:41:33.400Z,31.09
2023-04-22T10:44:02.860Z,30.98
2023-04-22T10:47:01.108Z,31.81
2023-04-22T10:49:33.036Z,31.82
2023-04-22T10:52:04.025Z,30.70
2023-04-22T10:55:03.419Z,31.68
2023-04-22T10:57:40.521Z,31.94
2023-04-22T11:00:45.607Z,30.93
2023-04-22T11:03:27.718Z,31.56
2023-04-22T11:06:14.626Z,31.26
2023-04-22T11:08:46.500Z,31.78
2023-04-22T11:11:14.891Z,31.70
2023-04-22T11:13:44.046Z,31.44
2023-04-22T11:16:12.550Z,31.28
2023-04-22T11:18:42.469Z,31.44
2023-04-22T11:21:10.794Z,31.66
2023-04-22T11:23:39.110Z,31.40
2023-04-22T11:26:07.806Z,31.39
2023-04-22T11:28:36.478Z,31.26
2023-04-22T11:31:06.504Z,30.76
2023-04-22T11:33:35.798Z,31.96
2023-04-22T11:36:06.773Z,32.64
2023-04-22T11:38:35.931Z,31.72
2023-04-22T11:41:05.177Z,32.25
2023-04-22T11:43:33.713Z,32.00
2023-04-22T11:46:02.382Z,32.06
2023-04-22T11:48:30.772Z,30.68
2023-04-22T11:51:11.643Z,30.64
2023-04-22T11:53:41.297Z,31.47
2023-04-22T11:56:09.741Z,31.53
2023-04-22T11:58:40.803Z,32.02
2023-04-22T12:01:13.634Z,30.80
2023-04-22T12:03:42.377Z,31.28
2023-04-22T12:06:12.320Z,31.94
2023-04-22T12:08:44.389Z,31.97
2023-04-22T12:11:13.394Z,31.69
2023-04-22T12:13:43.649Z,31.85
2023-04-22T12:16:13.179Z,31.81
2023-04-22T12:18:43.205Z,32.70
2023-04-22T12:21:13.760Z,32.05
2023-04-22T12:23:43.485Z,32.15
2023-04-22T12:26:11.759Z,31.99
2023-04-22T12:28:42.154Z,32.48
2023-04-22T12:31:10.682Z,32.70
2023-04-22T12:33:39.546Z,32.64
2023-04-22T12:36:08.379Z,31.46
2023-04-22T12:38:38.089Z,33.29
2023-04-22T12:41:07.126Z,31.43
2023-04-22T12:43:36.730Z,33.28
2023-04-22T12:46:05.594Z,32.23
2023-04-22T12:48:34.348Z,32.59
2023-04-22T12:51:02.633Z,32.59
2023-04-22T12:53:31.017Z,32.56
2023-04-22T12:56:00.649Z,32.75
2023-04-22T12:58:28.930Z,33.94
2023-04-22T13:00:57.221Z,32.45
2023-04-22T13:03:25.635Z,32.73
2023-04-22T13:05:54.059Z,33.33
2023-04-22T13:08:22.317Z,33.70
2023-04-22T13:10:50.579Z,31.95
2023-04-22T13:13:20.191Z,32.56
2023-04-22T13:15:53.608Z,32.84
2023-04-22T13:18:22.882Z,33.42
2023-04-22T13:20:51.291Z,31.98
2023-04-22T13:23:21.609Z,32.21
2023-04-22T13:25:50.730Z,33.69
2023-04-22T13:28:20.413Z,33.37
2023-04-22T13:30:48.706Z,33.11
2023-04-22T13:33:17.005Z,33.06
2023-04-22T13:35:45.325Z,32.44
2023-04-22T13:38:13.654Z,32.59
2023-04-22T13:40:42.107Z,33.21
2023-04-22T13:43:10.845Z,33.74
2023-04-22T13:45:40.912Z,32.71
2023-04-22T13:48:09.361Z,33.53
2023-04-22T13:50:37.725Z,33.87
2023-04-22T13:53:09.846Z,33.45
2023-04-22T13:55:38.617Z,33.07
2023-04-22T13:58:07.753Z,33.18
2023-04-22T14:00:36.340Z,32.31
2023-04-22T14:03:06.481Z,33.92
2023-04-22T14:05:34.801Z,33.10
2023-04-22T14:08:03.163Z,33.61
2023-04-22T14:10:31.558Z,33.17
2023-04-22T14:12:59.878Z,34.31
2023-04-22T14:15:28.253Z,32.92
2023-04-22T14:17:56.658Z,33.51
2023-04-22T14:20:26.341Z,34.65
2023-04-22T14:22:54.682Z,33.65
2023-04-22T14:25:23.072Z,33.90
2023-04-22T14:27:51.398Z,34.34
2023-04-22T14:30:21.796Z,34.70
2023-04-22T14:32:50.464Z,35.42
2023-04-22T14:35:19.288Z,34.34
2023-04-22T14:37:49.120Z,33.58
2023-04-22T14:40:17.610Z,35.00
2023-04-22T14:42:46.222Z,35.11
2023-04-22T14:45:14.726Z,35.31
2023-04-22T14:47:43.054Z,35.59
2023-04-22T14:50:11.932Z,35.38
2023-04-22T14:52:40.515Z,33.98
2023-04-22T14:55:21.979Z,35.00
2023-04-22T14:57:53.276Z,34.32
2023-04-22T15:00:21.427Z,34.41
2023-04-22T15:02:49.780Z,33.89
2023-04-22T15:05:18.245Z,33.43
2023-04-22T15:07:46.612Z,32.90
2023-04-22T15:10:16.917Z,32.67
2023-04-22T15:12:45.090Z,32.89
2023-04-22T15:15:15.897Z,33.92
2023-04-22T15:17:44.782Z,33.81
2023-04-22T15:20:14.184Z,33.87
2023-04-22T15:22:42.830Z,33.62
2023-04-22T15:25:11.912Z,33.83
2023-04-22T15:27:41.601Z,33.96
2023-04-22T15:30:10.958Z,33.51
2023-04-22T15:32:39.904Z,34.56
2023-04-22T15:35:08.966Z,34.61
2023-04-22T15:37:37.246Z,33.57
2023-04-22T15:40:07.005Z,34.17
2023-04-22T15:42:35.710Z,33.69
2023-04-22T15:45:06.131Z,33.46
2023-04-22T15:47:34.890Z,34.08
2023-04-22T15:50:06.544Z,33.60
2023-04-22T15:52:35.278Z,34.28
2023-04-22T15:55:03.668Z,33.16
2023-04-22T15:57:35.029Z,33.92
2023-04-22T16:00:11.988Z,33.91
2023-04-22T16:02:42.115Z,34.22
2023-04-22T16:05:11.469Z,33.35
2023-04-22T16:07:40.273Z,34.02
2023-04-22T16:10:10.075Z,33.25
2023-04-22T16:12:38.362Z,34.05
2023-04-22T16:15:10.577Z,32.99
2023-04-22T16:17:39.358Z,33.96
2023-04-22T16:20:09.535Z,33.52
2023-04-22T16:22:38.195Z,33.77
2023-04-22T16:25:07.779Z,33.89
2023-04-22T16:27:36.073Z,32.33
2023-04-22T16:30:05.720Z,32.80
2023-04-22T16:32:35.611Z,32.98
2023-04-22T16:35:04.416Z,32.43
2023-04-22T16:37:34.065Z,32.16
2023-04-22T16:40:02.733Z,32.07
2023-04-22T16:42:31.100Z,32.38
2023-04-22T16:44:59.314Z,32.54
2023-04-22T16:47:27.634Z,32.86
2023-04-22T16:49:57.285Z,33.01
2023-04-22T16:52:25.605Z,32.74
2023-04-22T16:54:53.862Z,32.56
2023-04-22T16:57:22.273Z,32.08
2023-04-22T16:59:50.493Z,32.55
2023-04-22T17:02:18.935Z,33.12
2023-04-22T17:04:47.923Z,33.02
2023-04-22T17:07:17.588Z,32.91
2023-04-22T17:09:46.308Z,33.22
2023-04-22T17:12:14.578Z,33.25
2023-04-22T17:14:42.974Z,32.21
2023-04-22T17:17:11.522Z,33.17
2023-04-22T17:19:40.420Z,33.45
2023-04-22T17:22:09.401Z,33.44
2023-04-22T17:24:39.019Z,33.06
2023-04-22T17:27:07.382Z,32.47
2023-04-22T17:29:35.817Z,33.08
2023-04-22T17:32:04.127Z,32.73
2023-04-22T17:34:32.669Z,32.52
2023-04-22T17:37:00.930Z,32.32
2023-04-22T17:39:29.255Z,32.12
2023-04-22T17:41:59.351Z,31.60
2023-04-22T17:44:27.677Z,31.38
2023-04-22T17:46:56.042Z,31.14
2023-04-22T17:49:24.407Z,31.10
2023-04-22T17:51:52.635Z,31.25
2023-04-22T17:54:20.935Z,30.76
2023-04-22T17:56:49.231Z,30.63
2023-04-22T17:59:18.842Z,31.06
2023-04-22T18:01:47.109Z,31.10
2023-04-22T18:04:15.464Z,31.36
2023-04-22T18:06:43.750Z,31.29
2023-04-22T18:09:12.172Z,31.33
2023-04-22T18:11:40.421Z,31.28
2023-04-22T18:14:08.908Z,31.23
2023-04-22T18:16:38.588Z,31.09
2023-04-22T18:19:07.618Z,30.71
2023-04-22T18:21:36.902Z,30.26
2023-04-22T18:24:08.452Z,30.24
2023-04-22T18:26:37.185Z,30.24
2023-04-22T18:29:05.632Z,30.25
2023-04-22T18:31:33.886Z,30.26
2023-04-22T18:34:04.190Z,30.25
2023-04-22T18:36:32.628Z,30.22
2023-04-22T18:39:03.446Z,30.18
2023-04-22T18:41:31.671Z,30.15
2023-04-22T18:43:59.982Z,30.08
2023-04-22T18:46:28.392Z,29.97
2023-04-22T18:48:56.721Z,29.92
2023-04-22T18:51:27.669Z,29.87
2023-04-22T18:53:55.917Z,29.75
2023-04-22T18:56:24.278Z,29.66
2023-04-22T18:58:52.646Z,29.53
2023-04-22T19:01:20.992Z,29.43
2023-04-22T19:03:50.029Z,29.29
2023-04-22T19:06:18.373Z,28.55
2023-04-22T19:08:48.893Z,28.03
2023-04-22T19:11:17.208Z,27.76
2023-04-22T19:13:46.309Z,27.71
2023-04-22T19:16:14.582Z,27.64
2023-04-22T19:18:44.746Z,28.06
2023-04-22T19:21:13.026Z,28.20
2023-04-22T19:23:41.640Z,28.19
2023-04-22T19:26:11.275Z,28.27
2023-04-22T19:28:39.517Z,28.30
2023-04-22T19:31:07.745Z,28.38
2023-04-22T19:33:36.261Z,28.41
2023-04-22T19:36:04.788Z,28.49
2023-04-22T19:38:33.025Z,28.58
2023-04-22T19:41:01.361Z,28.66
2023-04-22T19:43:31.867Z,28.70
2023-04-22T19:46:00.350Z,28.70
2023-04-22T19:48:29.302Z,28.32
2023-04-22T19:50:58.472Z,28.37
2023-04-22T19:53:27.083Z,28.35
2023-04-22T19:55:55.598Z,28.43
2023-04-22T19:58:23.927Z,28.50
2023-04-22T20:00:54.399Z,28.56
2023-04-22T20:03:22.929Z,28.58
2023-04-22T20:05:51.625Z,28.04
2023-04-22T20:08:20.623Z,27.85
2023-04-22T20:10:50.080Z,28.12
2023-04-22T20:13:18.727Z,28.12
2023-04-22T20:15:47.628Z,27.82
2023-04-22T20:18:17.706Z,27.74
2023-04-22T20:20:48.126Z,27.63
2023-04-22T20:23:16.749Z,27.24
2023-04-22T20:25:45.715Z,27.31
2023-04-22T20:28:14.190Z,27.69
2023-04-22T20:30:42.793Z,27.59
2023-04-22T20:33:15.171Z,27.83
2023-04-22T20:35:47.800Z,27.78
2023-04-22T20:38:15.862Z,27.59
2023-04-22T20:40:45.433Z,27.52
2023-04-22T20:43:17.889Z,26.10
2023-04-22T20:45:46.139Z,25.32
2023-04-22T20:48:14.467Z,25.31
2023-04-22T20:50:42.708Z,26.03
2023-04-22T20:53:12.526Z,26.67
2023-04-22T20:55:41.258Z,26.50
2023-04-22T20:58:09.546Z,25.98
2023-04-22T21:00:37.820Z,26.83
2023-04-22T21:03:09.815Z,26.95
2023-04-22T21:05:41.296Z,27.02
2023-04-22T21:08:22.789Z,26.88
2023-04-22T21:10:52.864Z,26.68
2023-04-22T21:13:21.866Z,27.22
2023-04-22T21:15:56.639Z,26.98
2023-04-22T21:18:26.604Z,26.36
2023-04-22T21:20:56.915Z,26.50
2023-04-22T21:23:27.213Z,26.46
2023-04-22T21:25:56.208Z,27.05
2023-04-22T21:28:25.054Z,26.86
2023-04-22T21:30:53.986Z,26.92
2023-04-22T21:33:22.246Z,26.97
2023-04-22T21:35:50.573Z,27.04
2023-04-22T21:38:19.722Z,27.10
2023-04-22T21:40:49.351Z,27.01
2023-04-22T21:43:17.585Z,27.12
2023-04-22T21:45:45.844Z,27.32
2023-04-22T21:48:14.268Z,27.49
2023-04-22T21:50:42.509Z,27.51
2023-04-22T21:53:11.189Z,27.31
2023-04-22T21:55:40.409Z,27.44
2023-04-22T21:58:09.975Z,27.41
2023-04-22T22:00:38.759Z,27.29
2023-04-22T22:03:07.284Z,27.36
2023-04-22T22:05:36.048Z,27.33
2023-04-22T22:08:04.336Z,27.31
2023-04-22T22:10:32.731Z,27.09
2023-04-22T22:13:00.975Z,26.17
2023-04-22T22:15:30.620Z,26.99
2023-04-22T22:17:59.430Z,26.95
2023-04-22T22:20:29.901Z,26.38
2023-04-22T22:22:58.160Z,26.68
2023-04-22T22:25:26.905Z,26.73
2023-04-22T22:27:55.217Z,26.77
2023-04-22T22:30:23.466Z,26.85
2023-04-22T22:32:53.191Z,26.83
2023-04-22T22:35:22.330Z,26.04
2023-04-22T22:37:50.886Z,26.15
2023-04-22T22:40:19.210Z,25.96
2023-04-22T22:42:47.644Z,26.19
2023-04-22T22:45:16.037Z,26.22
2023-04-22T22:47:44.425Z,26.31
2023-04-22T22:50:14.347Z,26.41
2023-04-22T22:52:42.720Z,26.24
2023-04-22T22:55:10.992Z,26.34
2023-04-22T22:57:39.455Z,26.49
2023-04-22T23:00:10.306Z,26.40
2023-04-22T23:02:38.792Z,26.43
2023-04-22T23:05:10.797Z,26.31
2023-04-22T23:07:40.581Z,26.44
2023-04-22T23:10:10.135Z,26.47
2023-04-22T23:12:38.412Z,26.45
2023-04-22T23:15:07.932Z,26.49
2023-04-22T23:17:36.630Z,26.57
2023-04-22T23:20:07.341Z,26.08
2023-04-22T23:22:35.426Z,26.31
2023-04-22T23:25:05.956Z,26.45
2023-04-22T23:27:34.275Z,26.42
2023-04-22T23:30:03.087Z,25.88
2023-04-22T23:32:33.330Z,26.21
2023-04-22T23:35:02.431Z,26.46
2023-04-22T23:37:31.255Z,26.62
2023-04-22T23:39:59.556Z,26.55
2023-04-22T23:42:29.204Z,26.44
2023-04-22T23:44:57.668Z,26.58
2023-04-22T23:47:26.083Z,26.57
2023-04-22T23:49:54.378Z,26.63
2023-04-22T23:52:23.328Z,26.50
2023-04-22T23:54:52.735Z,26.56
2023-04-22T23:57:21.567Z,26.47
2023-04-22T23:59:51.918Z,26.48
